createdAt,value
2022-10-21T00:04:40.394Z,5.80
2022-10-21T00:09:55.381Z,5.88
2022-10-21T00:15:10.389Z,4.60
2022-10-21T00:20:25.409Z,5.45
2022-10-21T00:25:40.445Z,5.45
2022-10-21T00:30:57.941Z,6.28
2022-10-21T00:36:13.467Z,5.10
2022-10-21T00:41:28.651Z,6.15
2022-10-21T00:46:44.440Z,6.07
2022-10-21T00:51:59.747Z,5.55
2022-10-21T00:57:15.387Z,5.45
2022-10-21T01:02:30.632Z,6.13
2022-10-21T01:08:24.741Z,5.63
2022-10-21T01:13:40.437Z,5.55
2022-10-21T01:18:55.167Z,5.57
2022-10-21T01:24:10.688Z,5.28
2022-10-21T01:29:27.735Z,5.00
2022-10-21T01:34:43.785Z,5.75
2022-10-21T01:39:59.463Z,5.18
2022-10-21T01:45:14.406Z,6.30
2022-10-21T01:50:29.734Z,4.60
2022-10-21T01:55:45.423Z,5.70
2022-10-21T02:01:00.740Z,6.03
2022-10-21T02:06:16.708Z,5.35
2022-10-21T02:11:32.749Z,5.45
2022-10-21T02:16:48.741Z,5.28
2022-10-21T02:22:03.417Z,5.70
2022-10-21T02:27:18.428Z,5.78
2022-10-21T02:32:33.724Z,5.35
2022-10-21T02:37:49.433Z,5.72
2022-10-21T02:43:04.423Z,5.47
2022-10-21T02:48:19.410Z,5.22
2022-10-21T02:53:34.493Z,5.90
2022-10-21T02:58:49.494Z,5.13
2022-10-21T03:04:04.499Z,6.38
2022-10-21T03:09:19.469Z,5.57
2022-10-21T03:14:34.720Z,5.43
2022-10-21T03:19:50.407Z,4.78
2022-10-21T03:25:05.473Z,5.45
2022-10-21T03:30:20.390Z,4.93
2022-10-21T03:35:35.414Z,5.50
2022-10-21T03:40:50.453Z,6.00
2022-10-21T03:46:05.408Z,5.60
2022-10-21T03:51:20.460Z,5.35
2022-10-21T03:56:35.748Z,6.05
2022-10-21T04:01:51.529Z,5.00
2022-10-21T04:07:06.432Z,5.07
2022-10-21T04:12:21.712Z,5.47
2022-10-21T04:17:37.634Z,5.85
2022-10-21T04:22:53.717Z,6.10
2022-10-21T04:28:09.735Z,5.68
2022-10-21T04:33:25.767Z,5.85
2022-10-21T04:38:41.224Z,5.45
2022-10-21T04:43:56.742Z,5.35
2022-10-21T04:49:12.706Z,5.47
2022-10-21T04:54:28.434Z,5.80
2022-10-21T04:59:43.745Z,5.60
2022-10-21T05:04:59.743Z,5.55
2022-10-21T05:10:15.426Z,5.03
2022-10-21T05:15:30.419Z,5.22
2022-10-21T05:20:45.697Z,5.90
2022-10-21T05:26:01.675Z,5.70
2022-10-21T05:31:17.407Z,5.13
2022-10-21T05:36:32.472Z,5.05
2022-10-21T05:41:48.167Z,5.35
2022-10-21T05:47:03.400Z,4.97
2022-10-21T05:52:18.449Z,4.50
2022-10-21T05:57:33.420Z,4.65
2022-10-21T06:02:48.477Z,5.47
2022-10-21T06:08:03.456Z,5.15
2022-10-21T06:13:18.411Z,5.60
2022-10-21T06:18:33.452Z,4.90
2022-10-21T06:23:49.731Z,4.65
2022-10-21T06:29:05.442Z,4.07
2022-10-21T06:34:20.482Z,4.65
2022-10-21T06:39:35.760Z,4.22
2022-10-21T06:44:52.728Z,5.20
2022-10-21T06:50:09.730Z,4.63
2022-10-21T06:55:25.465Z,4.40
2022-10-21T07:00:40.456Z,4.05
2022-10-21T07:05:55.542Z,5.03
2022-10-21T07:11:10.453Z,4.00
2022-10-21T07:16:25.460Z,4.18
2022-10-21T07:21:40.395Z,4.07
2022-10-21T07:26:55.396Z,4.28
2022-10-21T07:32:10.750Z,4.32
2022-10-21T07:37:26.661Z,3.83
2022-10-21T07:42:42.411Z,4.60
2022-10-21T07:47:57.397Z,4.22
2022-10-21T07:53:13.156Z,4.85
2022-10-21T07:58:28.200Z,3.75
2022-10-21T08:03:43.808Z,4.35
2022-10-21T08:08:59.572Z,4.10
2022-10-21T08:14:14.414Z,3.78
2022-10-21T08:19:29.271Z,4.10
2022-10-21T08:24:44.428Z,3.70
2022-10-21T08:29:59.446Z,3.65
2022-10-21T08:35:14.437Z,3.72
2022-10-21T08:40:29.817Z,3.88
2022-10-21T08:45:45.693Z,3.78
2022-10-21T08:51:01.481Z,3.42
2022-10-21T08:56:19.817Z,3.63
2022-10-21T09:01:35.443Z,3.30
2022-10-21T09:06:50.653Z,3.53
2022-10-21T09:12:05.736Z,2.88
2022-10-21T09:17:21.436Z,3.83
2022-10-21T09:22:36.460Z,3.67
2022-10-21T09:27:56.146Z,3.83
2022-10-21T09:33:11.778Z,3.90
2022-10-21T09:38:27.501Z,3.42
2022-10-21T09:43:42.448Z,3.28
2022-10-21T09:49:36.299Z,3.40
2022-10-21T09:54:32.415Z,4.45
2022-10-21T09:59:47.444Z,3.88
2022-10-21T10:05:02.528Z,52.35
2022-10-21T10:10:17.768Z,55.13
2022-10-21T10:15:33.317Z,42.35
2022-10-21T10:20:48.526Z,39.05
2022-10-21T10:26:03.571Z,29.15
2022-10-21T10:31:18.211Z,27.88
2022-10-21T10:36:33.515Z,24.13
2022-10-21T10:41:48.461Z,22.67
2022-10-21T10:47:03.517Z,19.75
2022-10-21T10:52:18.525Z,20.38
2022-10-21T10:57:44.437Z,17.63
2022-10-21T11:03:07.481Z,16.98
2022-10-21T11:08:22.442Z,14.48
2022-10-21T11:13:41.300Z,15.35
2022-10-21T11:18:57.458Z,12.50
2022-10-21T11:24:12.483Z,12.45
2022-10-21T11:29:27.426Z,12.18
2022-10-21T11:34:42.443Z,11.40
2022-10-21T11:39:57.507Z,10.60
2022-10-21T11:45:12.894Z,10.77
2022-10-21T11:50:28.776Z,8.27
2022-10-21T11:55:44.582Z,8.65
2022-10-21T12:00:59.491Z,8.27
2022-10-21T12:06:14.459Z,6.70
2022-10-21T12:11:29.769Z,8.43
2022-10-21T12:16:45.824Z,6.18
2022-10-21T12:22:01.480Z,5.13
2022-10-21T12:27:16.747Z,5.03
2022-10-21T12:32:32.436Z,4.80
2022-10-21T12:37:47.461Z,4.63
2022-10-21T12:43:02.513Z,4.28
2022-10-21T12:48:17.443Z,3.95
2022-10-21T12:53:32.440Z,3.75
2022-10-21T12:58:47.429Z,4.28
2022-10-21T13:04:02.538Z,3.70
2022-10-21T13:09:17.331Z,3.78
2022-10-21T13:14:36.138Z,3.30
2022-10-21T13:19:51.496Z,2.63
2022-10-21T13:25:06.825Z,3.13
2022-10-21T13:30:22.473Z,2.60
2022-10-21T13:35:37.508Z,2.70
2022-10-21T13:40:53.020Z,2.50
2022-10-21T13:46:08.994Z,2.45
2022-10-21T13:51:24.441Z,2.47
2022-10-21T13:56:39.521Z,2.78
2022-10-21T14:01:54.515Z,2.50
2022-10-21T14:07:10.531Z,1.90
2022-10-21T14:12:25.464Z,2.20
2022-10-21T14:17:40.616Z,2.10
2022-10-21T14:22:56.805Z,2.08
2022-10-21T14:28:12.475Z,1.67
2022-10-21T14:33:27.454Z,1.63
2022-10-21T14:38:42.481Z,1.55
2022-10-21T14:43:57.473Z,1.40
2022-10-21T14:49:12.523Z,1.73
2022-10-21T14:54:28.485Z,1.30
2022-10-21T14:59:43.511Z,1.75
2022-10-21T15:04:58.451Z,1.77
2022-10-21T15:10:13.331Z,1.20
2022-10-21T15:15:28.476Z,1.42
2022-10-21T15:20:43.504Z,1.50
2022-10-21T15:25:59.039Z,1.50
2022-10-21T15:31:14.231Z,1.85
2022-10-21T15:36:29.521Z,2.13
2022-10-21T15:41:44.747Z,4.28
2022-10-21T15:47:00.276Z,4.47
2022-10-21T15:52:15.455Z,4.20
2022-10-21T15:57:30.445Z,3.72
2022-10-21T16:02:45.840Z,3.03
2022-10-21T16:08:01.571Z,3.38
2022-10-21T16:13:16.488Z,3.20
2022-10-21T16:18:31.513Z,2.50
2022-10-21T16:23:46.504Z,2.50
2022-10-21T16:29:01.490Z,2.75
2022-10-21T16:34:16.878Z,2.70
2022-10-21T16:39:32.596Z,2.40
2022-10-21T16:44:47.482Z,2.60
2022-10-21T16:50:02.558Z,1.88
2022-10-21T16:55:17.502Z,2.03
2022-10-21T17:00:32.501Z,2.55
2022-10-21T17:05:47.801Z,2.17
2022-10-21T17:11:03.479Z,1.80
2022-10-21T17:16:18.483Z,1.70
2022-10-21T17:21:33.806Z,1.90
2022-10-21T17:26:49.504Z,1.55
2022-10-21T17:32:04.776Z,2.10
2022-10-21T17:37:20.482Z,2.63
2022-10-21T17:42:36.019Z,2.22
2022-10-21T17:47:51.911Z,2.05
2022-10-21T17:53:07.809Z,1.88
2022-10-21T17:58:23.506Z,1.52
2022-10-21T18:03:38.497Z,2.00
2022-10-21T18:08:53.531Z,1.92
2022-10-21T18:14:08.523Z,2.22
2022-10-21T18:19:23.452Z,1.58
2022-10-21T18:24:38.333Z,2.00
2022-10-21T18:29:53.969Z,1.77
2022-10-21T18:35:09.253Z,2.05
2022-10-21T18:40:24.480Z,1.80
2022-10-21T18:45:39.511Z,1.88
2022-10-21T18:50:54.565Z,1.30
2022-10-21T18:56:09.497Z,1.80
2022-10-21T19:01:24.574Z,1.45
2022-10-21T19:06:39.503Z,1.35
2022-10-21T19:11:54.529Z,1.50
2022-10-21T19:17:09.513Z,2.00
2022-10-21T19:22:24.583Z,1.65
2022-10-21T19:27:39.701Z,2.00
2022-10-21T19:32:55.499Z,1.85
2022-10-21T19:38:20.462Z,3.17
2022-10-21T19:43:41.839Z,2.50
2022-10-21T19:48:57.494Z,1.80
2022-10-21T19:54:12.559Z,1.85
2022-10-21T19:59:27.518Z,1.65
2022-10-21T20:04:42.563Z,2.30
2022-10-21T20:09:57.488Z,1.60
2022-10-21T20:15:12.704Z,1.60
2022-10-21T20:20:27.808Z,1.92
2022-10-21T20:25:43.498Z,1.65
2022-10-21T20:30:58.539Z,1.38
2022-10-21T20:36:13.256Z,2.00
2022-10-21T20:41:28.801Z,2.00
2022-10-21T20:46:44.704Z,1.60
2022-10-21T20:52:00.812Z,1.50
2022-10-21T20:57:16.548Z,1.70
2022-10-21T21:02:31.514Z,1.60
2022-10-21T21:07:46.535Z,1.65
2022-10-21T21:13:01.793Z,1.88
2022-10-21T21:18:17.861Z,1.60
2022-10-21T21:23:33.502Z,1.55
2022-10-21T21:28:48.490Z,1.52
2022-10-21T21:34:03.773Z,2.08
2022-10-21T21:39:19.538Z,1.63
2022-10-21T21:44:34.523Z,2.08
2022-10-21T21:49:49.599Z,1.77
2022-10-21T21:55:04.497Z,1.70
2022-10-21T22:00:19.788Z,2.10
2022-10-21T22:05:35.633Z,1.38
2022-10-21T22:10:50.518Z,1.48
2022-10-21T22:16:05.483Z,2.17
2022-10-21T22:21:20.595Z,1.88
2022-10-21T22:26:35.470Z,1.67
2022-10-21T22:31:50.531Z,2.03
2022-10-21T22:37:05.554Z,2.22
2022-10-21T22:42:20.541Z,1.77
2022-10-21T22:47:35.258Z,1.73
2022-10-21T22:52:50.486Z,1.85
2022-10-21T22:58:05.839Z,2.15
2022-10-21T23:03:21.489Z,1.70
2022-10-21T23:08:36.545Z,1.55
2022-10-21T23:14:02.526Z,2.00
2022-10-21T23:19:18.513Z,1.42
2022-10-21T23:24:34.552Z,1.67
2022-10-21T23:29:49.493Z,1.33
2022-10-21T23:35:04.503Z,1.60
2022-10-21T23:40:19.560Z,1.65
2022-10-21T23:45:34.843Z,2.28
2022-10-21T23:50:50.540Z,2.05
2022-10-21T23:56:05.495Z,1.77
